CheckWX is a tool to help pilots better visualize weather data.  It is not intended as a substitute for an official pre-flight weather briefing.

23:09:28 UTC

VTSG METAR
Krabi Airport
Krabi, Thailand
Current

1 hour ago

VTSG 202200Z 00000KT 9000 FEW020 22/21 Q1013 NOSIG
Observed
Feb-20 @ 22:00 UTC
Visibility
9,000 meters
Flight Rules
VFR
Cloud Levels
  • Few at 2,000' AGL
Temperature
22°C / 72°F
Dewpoint
21°C / 70°F
Humidity
94%
Altimeter
29.91" Hg
Pressure
1012.92 hPa
Previous

2 hours ago

VTSG 202100Z VRB02KT 9000 FEW020 22/21 Q1013 NOSIG
Observed
Feb-20 @ 21:00 UTC
Wind
  • Variable at 2 KTS
Visibility
9,000 meters
Flight Rules
VFR
Cloud Levels
  • Few at 2,000' AGL
Temperature
22°C / 72°F
Dewpoint
21°C / 70°F
Humidity
94%
Altimeter
29.91" Hg
Pressure
1012.92 hPa
Previous

3 hours ago

VTSG 202000Z 00000KT 9999 FEW020 22/21 Q1013 NOSIG
Observed
Feb-20 @ 20:00 UTC
Visibility
10,000+ meters
Flight Rules
VFR
Cloud Levels
  • Few at 2,000' AGL
Temperature
22°C / 72°F
Dewpoint
21°C / 70°F
Humidity
94%
Altimeter
29.91" Hg
Pressure
1012.92 hPa